Time,TemperatureF,DewpointF,PressureIn,WindDirection,WindDirectionDegrees,WindSpeedMPH,WindSpeedGustMPH,Humidity,HourlyPrecipIn,Conditions,Clouds,dailyrainin,SoftwareType,DateUTC
2013-04-18 00:00:00,74.9,62.3,29.96,North,0,0.0,7.0,65,0.00,,,-99.99,WeatherLink 5.7,2013-04-18 04:00:00,
2013-04-18 00:15:00,74.6,62.1,29.96,North,0,0.0,6.0,65,0.00,,,-99.99,WeatherLink 5.7,2013-04-18 04:15:00,
2013-04-18 00:30:00,74.3,62.2,29.97,North,0,0.0,5.0,66,0.00,,,-99.99,WeatherLink 5.7,2013-04-18 04:30:00,
2013-04-18 00:45:00,74.0,62.3,29.97,North,0,0.0,5.0,67,0.00,,,-99.99,WeatherLink 5.7,2013-04-18 04:45:00,
2013-04-18 01:00:00,73.7,62.1,29.96,North,0,0.0,1.0,67,0.00,,,-99.99,WeatherLink 5.7,2013-04-18 05:00:00,
2013-04-18 01:15:00,73.3,62.1,29.96,North,0,0.0,1.0,68,0.00,,,-99.99,WeatherLink 5.7,2013-04-18 05:15:00,
2013-04-18 01:30:00,73.0,62.6,29.95,North,0,0.0,6.0,70,0.00,,,-99.99,WeatherLink 5.7,2013-04-18 05:30:00,
2013-04-18 01:45:00,72.7,62.3,29.95,North,-999,0.0,0.0,70,0.00,,,-99.99,WeatherLink 5.7,2013-04-18 05:45:00,
2013-04-18 02:00:00,72.4,62.5,29.94,North,0,0.0,2.0,71,0.00,,,-99.99,WeatherLink 5.7,2013-04-18 06:00:00,
2013-04-18 02:15:00,72.1,63.0,29.93,North,0,0.0,5.0,73,0.00,,,-99.99,WeatherLink 5.7,2013-04-18 06:15:00,
2013-04-18 02:30:00,71.9,62.8,29.93,North,0,0.0,1.0,73,0.00,,,-99.99,WeatherLink 5.7,2013-04-18 06:30:00,
2013-04-18 02:45:00,71.8,63.1,29.92,North,0,0.0,4.0,74,0.00,,,-99.99,WeatherLink 5.7,2013-04-18 06:45:00,
2013-04-18 03:00:00,71.6,62.9,29.92,North,-999,0.0,0.0,74,0.00,,,-99.99,WeatherLink 5.7,2013-04-18 07:00:00,
2013-04-18 03:15:00,71.5,63.2,29.92,North,-999,0.0,0.0,75,0.00,,,-99.99,WeatherLink 5.7,2013-04-18 07:15:00,
2013-04-18 03:30:00,71.3,63.3,29.92,North,-999,0.0,0.0,76,0.00,,,-99.99,WeatherLink 5.7,2013-04-18 07:30:00,
2013-04-18 03:45:00,71.2,63.6,29.92,North,-999,0.0,0.0,77,0.00,,,-99.99,WeatherLink 5.7,2013-04-18 07:45:00,
2013-04-18 04:00:00,70.9,63.3,29.91,North,-999,0.0,0.0,77,0.00,,,-99.99,WeatherLink 5.7,2013-04-18 08:00:00,
2013-04-18 04:15:00,70.8,63.6,29.91,North,0,0.0,3.0,78,0.00,,,-99.99,WeatherLink 5.7,2013-04-18 08:15:00,
2013-04-18 04:30:00,70.7,63.5,29.91,North,-999,0.0,0.0,78,0.00,,,-99.99,WeatherLink 5.7,2013-04-18 08:30:00,
2013-04-18 04:45:00,70.5,63.7,29.91,North,0,0.0,1.0,79,0.00,,,-99.99,WeatherLink 5.7,2013-04-18 08:45:00,
2013-04-18 05:00:00,70.5,64.0,29.91,North,-999,0.0,0.0,80,0.00,,,-99.99,WeatherLink 5.7,2013-04-18 09:00:00,
2013-04-18 05:15:00,70.6,64.5,29.91,North,0,0.0,6.0,81,0.00,,,-99.99,WeatherLink 5.7,2013-04-18 09:15:00,
2013-04-18 05:30:00,70.8,64.7,29.91,North,0,1.0,13.0,81,0.00,,,-99.99,WeatherLink 5.7,2013-04-18 09:30:00,
2013-04-18 05:45:00,70.9,64.8,29.92,North,0,1.0,9.0,81,0.00,,,-99.99,WeatherLink 5.7,2013-04-18 09:45:00,
2013-04-18 06:00:00,70.9,64.8,29.92,North,0,0.0,4.0,81,0.00,,,-99.99,WeatherLink 5.7,2013-04-18 10:00:00,
2013-04-18 06:15:00,70.8,65.0,29.92,North,-999,0.0,0.0,82,0.00,,,-99.99,WeatherLink 5.7,2013-04-18 10:15:00,
2013-04-18 06:30:00,70.6,64.8,29.92,North,-999,0.0,0.0,82,0.00,,,-99.99,WeatherLink 5.7,2013-04-18 10:30:00,
2013-04-18 06:45:00,70.4,64.6,29.93,North,-999,0.0,0.0,82,0.00,,,-99.99,WeatherLink 5.7,2013-04-18 10:45:00,
2013-04-18 07:00:00,70.2,64.4,29.93,North,-999,0.0,0.0,82,0.00,,,-99.99,WeatherLink 5.7,2013-04-18 11:00:00,
2013-04-18 07:15:00,70.0,64.6,29.94,North,-999,0.0,0.0,83,0.00,,,-99.99,WeatherLink 5.7,2013-04-18 11:15:00,
2013-04-18 07:30:00,69.7,64.3,29.94,North,-999,0.0,0.0,83,0.00,,,-99.99,WeatherLink 5.7,2013-04-18 11:30:00,
2013-04-18 07:45:00,69.6,64.5,29.94,North,-999,0.0,0.0,84,0.00,,,-99.99,WeatherLink 5.7,2013-04-18 11:45:00,
2013-04-18 08:00:00,69.8,64.7,29.94,North,0,0.0,1.0,84,0.00,,,-99.99,WeatherLink 5.7,2013-04-18 12:00:00,
2013-04-18 08:15:00,70.4,65.3,29.94,North,0,0.0,5.0,84,0.00,,,-99.99,WeatherLink 5.7,2013-04-18 12:15:00,
2013-04-18 08:30:00,71.1,65.7,29.94,North,0,0.0,6.0,83,0.00,,,-99.99,WeatherLink 5.7,2013-04-18 12:30:00,
2013-04-18 08:45:00,72.2,66.0,29.94,North,0,1.0,9.0,81,0.00,,,-99.99,WeatherLink 5.7,2013-04-18 12:45:00,
2013-04-18 09:00:00,73.6,66.7,29.94,North,0,0.0,9.0,79,0.00,,,-99.99,WeatherLink 5.7,2013-04-18 13:00:00,
2013-04-18 09:15:00,74.9,67.6,29.94,North,0,1.0,11.0,78,0.00,,,-99.99,WeatherLink 5.7,2013-04-18 13:15:00,
2013-04-18 09:30:00,76.1,67.6,29.94,North,0,1.0,10.0,75,0.00,,,-99.99,WeatherLink 5.7,2013-04-18 13:30:00,
2013-04-18 09:45:00,77.4,67.7,29.94,North,0,3.0,17.0,72,0.00,,,-99.99,WeatherLink 5.7,2013-04-18 13:45:00,
2013-04-18 10:00:00,78.2,68.0,29.95,North,0,3.0,13.0,71,0.00,,,-99.99,WeatherLink 5.7,2013-04-18 14:00:00,
2013-04-18 10:15:00,79.0,68.4,29.95,North,0,3.0,15.0,70,0.00,,,-99.99,WeatherLink 5.7,2013-04-18 14:15:00,
2013-04-18 10:30:00,80.1,68.6,29.95,North,0,1.0,14.0,68,0.00,,,-99.99,WeatherLink 5.7,2013-04-18 14:30:00,
2013-04-18 10:45:00,81.2,69.2,29.95,North,0,2.0,13.0,67,0.00,,,-99.99,WeatherLink 5.7,2013-04-18 14:45:00,
2013-04-18 11:00:00,82.3,69.4,29.94,North,0,1.0,10.0,65,0.00,,,-99.99,WeatherLink 5.7,2013-04-18 15:00:00,
2013-04-18 11:15:00,83.4,69.9,29.94,North,0,1.0,11.0,64,0.00,,,-99.99,WeatherLink 5.7,2013-04-18 15:15:00,
2013-04-18 11:30:00,83.9,69.5,29.95,North,0,0.0,13.0,62,0.00,,,-99.99,WeatherLink 5.7,2013-04-18 15:30:00,
2013-04-18 11:45:00,84.6,68.7,29.95,North,0,1.0,12.0,59,0.00,,,-99.99,WeatherLink 5.7,2013-04-18 15:45:00,
2013-04-18 12:00:00,85.0,68.1,29.95,North,0,0.0,10.0,57,0.00,,,-99.99,WeatherLink 5.7,2013-04-18 16:00:00,
2013-04-18 12:15:00,85.4,68.4,29.95,North,0,0.0,10.0,57,0.00,,,-99.99,WeatherLink 5.7,2013-04-18 16:15:00,
2013-04-18 12:30:00,86.2,67.1,29.94,North,0,1.0,13.0,53,0.00,,,-99.99,WeatherLink 5.7,2013-04-18 16:30:00,
2013-04-18 12:45:00,86.2,67.1,29.94,North,0,1.0,18.0,53,0.00,,,-99.99,WeatherLink 5.7,2013-04-18 16:45:00,
2013-04-18 13:00:00,86.4,65.6,29.93,North,0,0.0,8.0,50,0.00,,,-99.99,WeatherLink 5.7,2013-04-18 17:00:00,
2013-04-18 13:15:00,87.2,65.7,29.93,North,0,0.0,5.0,49,0.00,,,-99.99,WeatherLink 5.7,2013-04-18 17:15:00,
2013-04-18 13:30:00,87.3,66.4,29.93,North,0,0.0,8.0,50,0.00,,,-99.99,WeatherLink 5.7,2013-04-18 17:30:00,
2013-04-18 13:45:00,87.7,65.0,29.92,North,0,0.0,6.0,47,0.00,,,-99.99,WeatherLink 5.7,2013-04-18 17:45:00,
2013-04-18 14:00:00,87.3,65.8,29.92,North,0,0.0,11.0,49,0.00,,,-99.99,WeatherLink 5.7,2013-04-18 18:00:00,
2013-04-18 14:15:00,87.3,65.2,29.92,North,0,0.0,5.0,48,0.00,,,-99.99,WeatherLink 5.7,2013-04-18 18:15:00,
2013-04-18 14:30:00,87.9,65.8,29.91,North,0,0.0,12.0,48,0.00,,,-99.99,WeatherLink 5.7,2013-04-18 18:30:00,
2013-04-18 14:45:00,88.1,65.3,29.90,North,-999,0.0,0.0,47,0.00,,,-99.99,WeatherLink 5.7,2013-04-18 18:45:00,
2013-04-18 15:00:00,88.0,65.8,29.90,North,0,0.0,1.0,48,0.00,,,-99.99,WeatherLink 5.7,2013-04-18 19:00:00,
2013-04-18 15:15:00,88.0,65.2,29.89,North,0,0.0,4.0,47,0.00,,,-99.99,WeatherLink 5.7,2013-04-18 19:15:00,
2013-04-18 15:30:00,88.1,65.3,29.89,North,0,0.0,6.0,47,0.00,,,-99.99,WeatherLink 5.7,2013-04-18 19:30:00,
2013-04-18 15:45:00,88.1,66.5,29.88,North,-999,0.0,0.0,49,0.00,,,-99.99,WeatherLink 5.7,2013-04-18 19:45:00,
2013-04-18 16:00:00,88.6,67.0,29.88,North,0,0.0,1.0,49,0.00,,,-99.99,WeatherLink 5.7,2013-04-18 20:00:00,
2013-04-18 16:15:00,89.0,67.4,29.88,North,-999,0.0,0.0,49,0.00,,,-99.99,WeatherLink 5.7,2013-04-18 20:15:00,
2013-04-18 16:30:00,88.8,67.8,29.88,North,-999,0.0,0.0,50,0.00,,,-99.99,WeatherLink 5.7,2013-04-18 20:30:00,
2013-04-18 16:45:00,88.2,68.4,29.88,North,-999,0.0,0.0,52,0.00,,,-99.99,WeatherLink 5.7,2013-04-18 20:45:00,
2013-04-18 17:00:00,87.6,68.4,29.88,North,0,0.0,1.0,53,0.00,,,-99.99,WeatherLink 5.7,2013-04-18 21:00:00,
2013-04-18 17:15:00,87.6,68.4,29.87,North,-999,0.0,0.0,53,0.00,,,-99.99,WeatherLink 5.7,2013-04-18 21:15:00,
2013-04-18 17:30:00,88.6,68.2,29.87,North,-999,0.0,0.0,51,0.00,,,-99.99,WeatherLink 5.7,2013-04-18 21:30:00,
2013-04-18 17:45:00,89.4,68.3,29.87,North,-999,0.0,0.0,50,0.00,,,-99.99,WeatherLink 5.7,2013-04-18 21:45:00,
2013-04-18 18:00:00,89.3,67.6,29.87,North,-999,0.0,0.0,49,0.00,,,-99.99,WeatherLink 5.7,2013-04-18 22:00:00,
2013-04-18 18:15:00,88.1,67.1,29.86,North,-999,0.0,0.0,50,0.00,,,-99.99,WeatherLink 5.7,2013-04-18 22:15:00,
2013-04-18 18:30:00,86.6,66.3,29.86,North,-999,0.0,0.0,51,0.00,,,-99.99,WeatherLink 5.7,2013-04-18 22:30:00,
2013-04-18 18:45:00,85.3,66.2,29.87,North,-999,0.0,0.0,53,0.00,,,-99.99,WeatherLink 5.7,2013-04-18 22:45:00,
2013-04-18 19:00:00,84.3,65.8,29.87,North,-999,0.0,0.0,54,0.00,,,-99.99,WeatherLink 5.7,2013-04-18 23:00:00,
2013-04-18 19:15:00,83.5,66.2,29.87,North,-999,0.0,0.0,56,0.00,,,-99.99,WeatherLink 5.7,2013-04-18 23:15:00,
2013-04-18 19:30:00,82.7,65.9,29.88,North,-999,0.0,0.0,57,0.00,,,-99.99,WeatherLink 5.7,2013-04-18 23:30:00,
2013-04-18 19:45:00,81.8,65.6,29.88,North,-999,0.0,0.0,58,0.00,,,-99.99,WeatherLink 5.7,2013-04-18 23:45:00,
2013-04-18 20:00:00,81.0,64.8,29.88,North,-999,0.0,0.0,58,0.00,,,-99.99,WeatherLink 5.7,2013-04-19 00:00:00,
2013-04-18 20:15:00,80.1,65.4,29.89,North,-999,0.0,0.0,61,0.00,,,-99.99,WeatherLink 5.7,2013-04-19 00:15:00,
2013-04-18 20:30:00,79.4,64.8,29.89,North,-999,0.0,0.0,61,0.00,,,-99.99,WeatherLink 5.7,2013-04-19 00:30:00,
2013-04-18 20:45:00,78.7,64.6,29.90,North,-999,0.0,0.0,62,0.00,,,-99.99,WeatherLink 5.7,2013-04-19 00:45:00,
2013-04-18 21:00:00,78.3,65.6,29.90,North,0,0.0,5.0,65,0.00,,,-99.99,WeatherLink 5.7,2013-04-19 01:00:00,
2013-04-18 21:15:00,78.1,65.8,29.90,North,-999,0.0,0.0,66,0.00,,,-99.99,WeatherLink 5.7,2013-04-19 01:15:00,
2013-04-18 21:30:00,77.8,66.0,29.91,North,-999,0.0,0.0,67,0.00,,,-99.99,WeatherLink 5.7,2013-04-19 01:30:00,
2013-04-18 21:45:00,77.4,66.0,29.91,North,-999,0.0,0.0,68,0.00,,,-99.99,WeatherLink 5.7,2013-04-19 01:45:00,
2013-04-18 22:00:00,76.9,65.5,29.92,North,-999,0.0,0.0,68,0.00,,,-99.99,WeatherLink 5.7,2013-04-19 02:00:00,
2013-04-18 22:15:00,76.4,65.5,29.92,North,-999,0.0,0.0,69,0.00,,,-99.99,WeatherLink 5.7,2013-04-19 02:15:00,
2013-04-18 22:30:00,76.2,66.5,29.92,North,-999,0.0,0.0,72,0.00,,,-99.99,WeatherLink 5.7,2013-04-19 02:30:00,
2013-04-18 22:45:00,76.3,66.6,29.92,North,-999,0.0,0.0,72,0.00,,,-99.99,WeatherLink 5.7,2013-04-19 02:45:00,
2013-04-18 23:00:00,76.5,67.6,29.92,North,-999,0.0,0.0,74,0.00,,,-99.99,WeatherLink 5.7,2013-04-19 03:00:00,
2013-04-18 23:15:00,76.6,68.1,29.92,North,-999,0.0,0.0,75,0.00,,,-99.99,WeatherLink 5.7,2013-04-19 03:15:00,
2013-04-18 23:30:00,76.7,67.8,29.92,North,-999,0.0,0.0,74,0.00,,,-99.99,WeatherLink 5.7,2013-04-19 03:30:00,
2013-04-18 23:45:00,76.5,68.4,29.92,North,-999,0.0,0.0,76,0.00,,,-99.99,WeatherLink 5.7,2013-04-19 03:45:00,